sensor_id;sensor_type;location;lat;lon;timestamp;P1;durP1;ratioP1;P2;durP2;ratioP2
12218;SDS011;6172;42.646;23.344;2024-02-04T00:02:05;3.30;;;1.70;;
12218;SDS011;6172;42.646;23.344;2024-02-04T00:04:58;2.87;;;1.90;;
12218;SDS011;6172;42.646;23.344;2024-02-04T00:07:26;3.43;;;2.27;;
12218;SDS011;6172;42.646;23.344;2024-02-04T00:10:06;4.43;;;2.07;;
12218;SDS011;6172;42.646;23.344;2024-02-04T00:12:42;3.50;;;2.30;;
12218;SDS011;6172;42.646;23.344;2024-02-04T00:15:11;3.20;;;2.17;;
12218;SDS011;6172;42.646;23.344;2024-02-04T00:17:40;2.27;;;1.80;;
12218;SDS011;6172;42.646;23.344;2024-02-04T00:20:36;2.23;;;2.03;;
12218;SDS011;6172;42.646;23.344;2024-02-04T00:23:08;2.67;;;1.33;;
12218;SDS011;6172;42.646;23.344;2024-02-04T00:25:40;3.67;;;2.10;;
12218;SDS011;6172;42.646;23.344;2024-02-04T00:28:12;3.93;;;2.40;;
12218;SDS011;6172;42.646;23.344;2024-02-04T00:30:59;4.07;;;1.90;;
12218;SDS011;6172;42.646;23.344;2024-02-04T00:33:28;2.67;;;2.43;;
12218;SDS011;6172;42.646;23.344;2024-02-04T00:35:57;3.43;;;2.20;;
12218;SDS011;6172;42.646;23.344;2024-02-04T00:38:29;2.60;;;2.40;;
12218;SDS011;6172;42.646;23.344;2024-02-04T00:41:20;4.33;;;2.20;;
12218;SDS011;6172;42.646;23.344;2024-02-04T00:43:54;2.67;;;1.90;;
12218;SDS011;6172;42.646;23.344;2024-02-04T00:46:30;3.23;;;1.87;;
12218;SDS011;6172;42.646;23.344;2024-02-04T00:49:17;2.03;;;1.80;;
12218;SDS011;6172;42.646;23.344;2024-02-04T00:51:46;3.27;;;2.40;;
12218;SDS011;6172;42.646;23.344;2024-02-04T00:54:17;3.50;;;2.30;;
12218;SDS011;6172;42.646;23.344;2024-02-04T00:56:51;2.90;;;2.40;;
12218;SDS011;6172;42.646;23.344;2024-02-04T00:59:30;3.87;;;2.60;;
12218;SDS011;6172;42.646;23.344;2024-02-04T01:02:11;2.73;;;2.03;;
12218;SDS011;6172;42.646;23.344;2024-02-04T01:04:56;4.83;;;2.03;;
12218;SDS011;6172;42.646;23.344;2024-02-04T01:07:27;3.80;;;1.90;;
12218;SDS011;6172;42.646;23.344;2024-02-04T01:09:55;3.60;;;1.70;;
12218;SDS011;6172;42.646;23.344;2024-02-04T01:12:36;2.40;;;1.93;;
12218;SDS011;6172;42.646;23.344;2024-02-04T01:15:15;2.33;;;1.80;;
12218;SDS011;6172;42.646;23.344;2024-02-04T01:17:59;2.90;;;1.83;;
12218;SDS011;6172;42.646;23.344;2024-02-04T01:20:28;2.70;;;1.87;;
12218;SDS011;6172;42.646;23.344;2024-02-04T01:22:56;3.33;;;2.00;;
12218;SDS011;6172;42.646;23.344;2024-02-04T01:25:35;1.83;;;1.60;;
12218;SDS011;6172;42.646;23.344;2024-02-04T01:28:16;2.50;;;1.73;;
12218;SDS011;6172;42.646;23.344;2024-02-04T01:30:49;3.27;;;1.60;;
12218;SDS011;6172;42.646;23.344;2024-02-04T01:33:22;1.87;;;1.63;;
12218;SDS011;6172;42.646;23.344;2024-02-04T01:35:49;5.10;;;1.40;;
12218;SDS011;6172;42.646;23.344;2024-02-04T01:38:18;1.40;;;1.30;;
12218;SDS011;6172;42.646;23.344;2024-02-04T01:40:46;3.33;;;1.30;;
12218;SDS011;6172;42.646;23.344;2024-02-04T01:43:16;2.07;;;1.27;;
12218;SDS011;6172;42.646;23.344;2024-02-04T01:45:46;2.50;;;1.47;;
12218;SDS011;6172;42.646;23.344;2024-02-04T01:48:18;2.53;;;1.37;;
12218;SDS011;6172;42.646;23.344;2024-02-04T01:50:47;2.23;;;1.43;;
12218;SDS011;6172;42.646;23.344;2024-02-04T01:53:16;3.70;;;1.50;;
12218;SDS011;6172;42.646;23.344;2024-02-04T01:55:46;2.03;;;1.20;;
12218;SDS011;6172;42.646;23.344;2024-02-04T01:58:15;1.80;;;1.30;;
12218;SDS011;6172;42.646;23.344;2024-02-04T02:00:45;2.83;;;1.17;;
12218;SDS011;6172;42.646;23.344;2024-02-04T02:03:15;1.30;;;1.20;;
12218;SDS011;6172;42.646;23.344;2024-02-04T02:05:47;3.27;;;1.03;;
12218;SDS011;6172;42.646;23.344;2024-02-04T02:08:14;2.50;;;1.57;;
12218;SDS011;6172;42.646;23.344;2024-02-04T02:10:42;1.87;;;1.17;;
12218;SDS011;6172;42.646;23.344;2024-02-04T02:13:14;2.30;;;1.67;;
12218;SDS011;6172;42.646;23.344;2024-02-04T02:15:45;1.57;;;1.13;;
12218;SDS011;6172;42.646;23.344;2024-02-04T02:18:16;2.57;;;1.43;;
12218;SDS011;6172;42.646;23.344;2024-02-04T02:20:52;2.67;;;1.60;;
12218;SDS011;6172;42.646;23.344;2024-02-04T02:23:34;2.00;;;1.50;;
12218;SDS011;6172;42.646;23.344;2024-02-04T02:26:10;1.57;;;1.20;;
12218;SDS011;6172;42.646;23.344;2024-02-04T02:28:37;1.83;;;1.40;;
12218;SDS011;6172;42.646;23.344;2024-02-04T02:31:05;1.73;;;1.33;;
12218;SDS011;6172;42.646;23.344;2024-02-04T02:33:32;1.73;;;1.30;;
12218;SDS011;6172;42.646;23.344;2024-02-04T02:35:59;2.73;;;1.50;;
12218;SDS011;6172;42.646;23.344;2024-02-04T02:38:33;1.33;;;1.10;;
12218;SDS011;6172;42.646;23.344;2024-02-04T02:41:14;1.33;;;1.03;;
12218;SDS011;6172;42.646;23.344;2024-02-04T02:43:43;2.47;;;1.03;;
12218;SDS011;6172;42.646;23.344;2024-02-04T02:46:13;3.67;;;1.50;;
12218;SDS011;6172;42.646;23.344;2024-02-04T02:48:40;2.57;;;1.33;;
12218;SDS011;6172;42.646;23.344;2024-02-04T02:51:09;1.43;;;0.90;;
12218;SDS011;6172;42.646;23.344;2024-02-04T02:53:37;1.50;;;1.07;;
12218;SDS011;6172;42.646;23.344;2024-02-04T02:56:05;2.17;;;1.40;;
12218;SDS011;6172;42.646;23.344;2024-02-04T02:58:34;2.27;;;1.20;;
12218;SDS011;6172;42.646;23.344;2024-02-04T03:01:01;1.77;;;1.20;;
12218;SDS011;6172;42.646;23.344;2024-02-04T03:03:30;2.57;;;1.40;;
12218;SDS011;6172;42.646;23.344;2024-02-04T03:06:00;2.17;;;1.20;;
12218;SDS011;6172;42.646;23.344;2024-02-04T03:08:28;2.20;;;1.10;;
12218;SDS011;6172;42.646;23.344;2024-02-04T03:10:55;1.40;;;1.07;;
12218;SDS011;6172;42.646;23.344;2024-02-04T03:13:22;1.83;;;1.20;;
12218;SDS011;6172;42.646;23.344;2024-02-04T03:15:52;1.00;;;0.90;;
12218;SDS011;6172;42.646;23.344;2024-02-04T03:18:20;2.33;;;0.80;;
12218;SDS011;6172;42.646;23.344;2024-02-04T03:20:47;1.90;;;0.70;;
12218;SDS011;6172;42.646;23.344;2024-02-04T03:23:14;2.43;;;1.10;;
12218;SDS011;6172;42.646;23.344;2024-02-04T03:25:41;1.67;;;0.70;;
12218;SDS011;6172;42.646;23.344;2024-02-04T03:28:08;0.93;;;0.90;;
12218;SDS011;6172;42.646;23.344;2024-02-04T03:30:36;1.20;;;0.63;;
12218;SDS011;6172;42.646;23.344;2024-02-04T03:33:05;1.27;;;1.03;;
12218;SDS011;6172;42.646;23.344;2024-02-04T03:35:32;1.40;;;1.07;;
12218;SDS011;6172;42.646;23.344;2024-02-04T03:38:01;1.20;;;0.90;;
12218;SDS011;6172;42.646;23.344;2024-02-04T03:40:28;0.80;;;0.70;;
12218;SDS011;6172;42.646;23.344;2024-02-04T03:42:55;1.50;;;1.20;;
12218;SDS011;6172;42.646;23.344;2024-02-04T03:45:22;1.60;;;0.87;;
12218;SDS011;6172;42.646;23.344;2024-02-04T03:47:51;1.03;;;0.60;;
12218;SDS011;6172;42.646;23.344;2024-02-04T03:50:20;0.93;;;0.83;;
12218;SDS011;6172;42.646;23.344;2024-02-04T03:52:47;0.40;;;0.40;;
12218;SDS011;6172;42.646;23.344;2024-02-04T03:55:14;0.60;;;0.60;;
12218;SDS011;6172;42.646;23.344;2024-02-04T03:57:41;1.70;;;0.67;;
12218;SDS011;6172;42.646;23.344;2024-02-04T04:00:09;2.30;;;0.80;;
12218;SDS011;6172;42.646;23.344;2024-02-04T04:02:36;0.83;;;0.70;;
12218;SDS011;6172;42.646;23.344;2024-02-04T04:05:04;0.60;;;0.50;;
12218;SDS011;6172;42.646;23.344;2024-02-04T04:07:33;0.90;;;0.70;;
12218;SDS011;6172;42.646;23.344;2024-02-04T04:10:00;0.83;;;0.60;;
12218;SDS011;6172;42.646;23.344;2024-02-04T04:12:27;1.73;;;0.80;;
12218;SDS011;6172;42.646;23.344;2024-02-04T04:14:54;0.90;;;0.80;;
12218;SDS011;6172;42.646;23.344;2024-02-04T04:17:21;1.10;;;0.70;;
12218;SDS011;6172;42.646;23.344;2024-02-04T04:19:48;1.80;;;1.10;;
12218;SDS011;6172;42.646;23.344;2024-02-04T04:22:16;2.23;;;1.27;;
12218;SDS011;6172;42.646;23.344;2024-02-04T04:24:46;0.93;;;0.93;;
12218;SDS011;6172;42.646;23.344;2024-02-04T04:27:13;1.50;;;1.10;;
12218;SDS011;6172;42.646;23.344;2024-02-04T04:29:40;1.07;;;0.80;;
12218;SDS011;6172;42.646;23.344;2024-02-04T04:32:08;1.50;;;0.93;;
12218;SDS011;6172;42.646;23.344;2024-02-04T04:34:35;1.97;;;0.93;;
12218;SDS011;6172;42.646;23.344;2024-02-04T04:37:02;1.77;;;1.00;;
12218;SDS011;6172;42.646;23.344;2024-02-04T04:39:29;1.20;;;0.80;;
12218;SDS011;6172;42.646;23.344;2024-02-04T04:41:58;1.27;;;0.83;;
12218;SDS011;6172;42.646;23.344;2024-02-04T04:44:25;1.37;;;0.90;;
12218;SDS011;6172;42.646;23.344;2024-02-04T04:46:52;0.87;;;0.63;;
12218;SDS011;6172;42.646;23.344;2024-02-04T04:49:19;0.97;;;0.67;;
12218;SDS011;6172;42.646;23.344;2024-02-04T04:51:46;1.07;;;0.90;;
12218;SDS011;6172;42.646;23.344;2024-02-04T04:54:13;0.60;;;0.60;;
12218;SDS011;6172;42.646;23.344;2024-02-04T04:56:41;0.80;;;0.80;;
12218;SDS011;6172;42.646;23.344;2024-02-04T04:59:09;1.07;;;0.80;;
12218;SDS011;6172;42.646;23.344;2024-02-04T05:01:37;0.90;;;0.77;;
12218;SDS011;6172;42.646;23.344;2024-02-04T05:04:04;0.70;;;0.70;;
12218;SDS011;6172;42.646;23.344;2024-02-04T05:06:31;1.20;;;1.10;;
12218;SDS011;6172;42.646;23.344;2024-02-04T05:08:59;0.93;;;0.83;;
12218;SDS011;6172;42.646;23.344;2024-02-04T05:11:27;1.57;;;1.33;;
12218;SDS011;6172;42.646;23.344;2024-02-04T05:13:54;1.20;;;0.80;;
12218;SDS011;6172;42.646;23.344;2024-02-04T05:16:23;1.90;;;1.20;;
12218;SDS011;6172;42.646;23.344;2024-02-04T05:18:50;2.60;;;1.30;;
12218;SDS011;6172;42.646;23.344;2024-02-04T05:21:18;1.33;;;1.10;;
12218;SDS011;6172;42.646;23.344;2024-02-04T05:23:46;2.10;;;1.33;;
12218;SDS011;6172;42.646;23.344;2024-02-04T05:26:13;1.37;;;1.20;;
12218;SDS011;6172;42.646;23.344;2024-02-04T05:28:40;1.57;;;1.03;;
12218;SDS011;6172;42.646;23.344;2024-02-04T05:31:07;2.53;;;0.90;;
12218;SDS011;6172;42.646;23.344;2024-02-04T05:33:36;1.00;;;0.90;;
12218;SDS011;6172;42.646;23.344;2024-02-04T05:36:03;1.17;;;0.80;;
12218;SDS011;6172;42.646;23.344;2024-02-04T05:38:31;0.60;;;0.60;;
12218;SDS011;6172;42.646;23.344;2024-02-04T05:40:57;0.70;;;0.70;;
12218;SDS011;6172;42.646;23.344;2024-02-04T05:43:24;1.23;;;0.80;;
12218;SDS011;6172;42.646;23.344;2024-02-04T05:45:51;0.70;;;0.70;;
12218;SDS011;6172;42.646;23.344;2024-02-04T05:48:19;0.60;;;0.57;;
12218;SDS011;6172;42.646;23.344;2024-02-04T05:50:48;1.00;;;0.57;;
12218;SDS011;6172;42.646;23.344;2024-02-04T05:53:15;1.87;;;0.90;;
12218;SDS011;6172;42.646;23.344;2024-02-04T05:55:42;2.10;;;0.70;;
12218;SDS011;6172;42.646;23.344;2024-02-04T05:58:10;1.57;;;0.80;;
12218;SDS011;6172;42.646;23.344;2024-02-04T06:00:39;0.90;;;0.80;;
12218;SDS011;6172;42.646;23.344;2024-02-04T06:03:06;1.43;;;1.20;;
12218;SDS011;6172;42.646;23.344;2024-02-04T06:05:33;1.90;;;1.20;;
12218;SDS011;6172;42.646;23.344;2024-02-04T06:08:02;2.53;;;1.30;;
12218;SDS011;6172;42.646;23.344;2024-02-04T06:10:29;1.67;;;1.20;;
12218;SDS011;6172;42.646;23.344;2024-02-04T06:12:56;4.27;;;1.60;;
12218;SDS011;6172;42.646;23.344;2024-02-04T06:15:23;2.37;;;1.37;;
12218;SDS011;6172;42.646;23.344;2024-02-04T06:17:50;1.87;;;1.30;;
12218;SDS011;6172;42.646;23.344;2024-02-04T06:20:17;2.10;;;1.30;;
12218;SDS011;6172;42.646;23.344;2024-02-04T06:22:44;1.70;;;1.20;;
12218;SDS011;6172;42.646;23.344;2024-02-04T06:25:14;4.20;;;1.43;;
12218;SDS011;6172;42.646;23.344;2024-02-04T06:27:45;3.77;;;1.63;;
12218;SDS011;6172;42.646;23.344;2024-02-04T06:30:26;2.80;;;1.20;;
12218;SDS011;6172;42.646;23.344;2024-02-04T06:32:53;1.87;;;1.20;;
12218;SDS011;6172;42.646;23.344;2024-02-04T06:35:24;1.50;;;1.20;;
12218;SDS011;6172;42.646;23.344;2024-02-04T06:37:52;1.47;;;1.10;;
12218;SDS011;6172;42.646;23.344;2024-02-04T06:40:26;2.80;;;1.00;;
12218;SDS011;6172;42.646;23.344;2024-02-04T06:42:56;1.97;;;1.10;;
12218;SDS011;6172;42.646;23.344;2024-02-04T06:45:24;3.60;;;1.03;;
12218;SDS011;6172;42.646;23.344;2024-02-04T06:47:52;1.27;;;1.17;;
12218;SDS011;6172;42.646;23.344;2024-02-04T06:50:19;1.40;;;1.10;;
12218;SDS011;6172;42.646;23.344;2024-02-04T06:52:46;1.30;;;1.20;;
12218;SDS011;6172;42.646;23.344;2024-02-04T06:55:14;1.20;;;0.90;;
12218;SDS011;6172;42.646;23.344;2024-02-04T06:57:43;1.13;;;1.00;;
12218;SDS011;6172;42.646;23.344;2024-02-04T07:00:12;1.17;;;1.00;;
12218;SDS011;6172;42.646;23.344;2024-02-04T07:02:40;3.97;;;1.60;;
12218;SDS011;6172;42.646;23.344;2024-02-04T07:05:08;1.50;;;1.00;;
12218;SDS011;6172;42.646;23.344;2024-02-04T07:07:36;1.10;;;1.00;;
12218;SDS011;6172;42.646;23.344;2024-02-04T07:10:05;1.73;;;0.97;;
12218;SDS011;6172;42.646;23.344;2024-02-04T07:12:35;1.37;;;1.00;;
12218;SDS011;6172;42.646;23.344;2024-02-04T07:15:16;3.03;;;1.00;;
12218;SDS011;6172;42.646;23.344;2024-02-04T07:17:48;1.00;;;1.00;;
12218;SDS011;6172;42.646;23.344;2024-02-04T07:20:16;2.30;;;0.90;;
12218;SDS011;6172;42.646;23.344;2024-02-04T07:22:47;1.90;;;1.10;;
12218;SDS011;6172;42.646;23.344;2024-02-04T07:25:15;1.50;;;1.00;;
12218;SDS011;6172;42.646;23.344;2024-02-04T07:27:48;3.03;;;1.00;;
12218;SDS011;6172;42.646;23.344;2024-02-04T07:30:18;1.20;;;0.90;;
12218;SDS011;6172;42.646;23.344;2024-02-04T07:32:46;2.33;;;0.87;;
12218;SDS011;6172;42.646;23.344;2024-02-04T07:35:22;1.63;;;1.00;;
12218;SDS011;6172;42.646;23.344;2024-02-04T07:37:55;4.40;;;1.33;;
12218;SDS011;6172;42.646;23.344;2024-02-04T07:40:26;3.43;;;1.47;;
12218;SDS011;6172;42.646;23.344;2024-02-04T07:42:55;3.17;;;1.33;;
12218;SDS011;6172;42.646;23.344;2024-02-04T07:45:38;1.27;;;1.00;;
12218;SDS011;6172;42.646;23.344;2024-02-04T07:48:06;1.83;;;0.90;;
12218;SDS011;6172;42.646;23.344;2024-02-04T07:50:37;1.87;;;0.90;;
12218;SDS011;6172;42.646;23.344;2024-02-04T07:53:14;1.83;;;1.13;;
12218;SDS011;6172;42.646;23.344;2024-02-04T07:55:41;2.37;;;1.20;;
12218;SDS011;6172;42.646;23.344;2024-02-04T07:58:08;1.97;;;1.00;;
12218;SDS011;6172;42.646;23.344;2024-02-04T08:00:38;2.67;;;1.50;;
12218;SDS011;6172;42.646;23.344;2024-02-04T08:03:12;2.67;;;1.00;;
12218;SDS011;6172;42.646;23.344;2024-02-04T08:05:40;3.00;;;1.10;;
12218;SDS011;6172;42.646;23.344;2024-02-04T08:08:07;1.37;;;0.83;;
12218;SDS011;6172;42.646;23.344;2024-02-04T08:10:36;1.30;;;0.80;;
12218;SDS011;6172;42.646;23.344;2024-02-04T08:13:05;1.57;;;0.50;;
12218;SDS011;6172;42.646;23.344;2024-02-04T08:15:33;0.97;;;0.70;;
12218;SDS011;6172;42.646;23.344;2024-02-04T08:18:03;2.53;;;0.50;;
12218;SDS011;6172;42.646;23.344;2024-02-04T08:20:31;1.27;;;0.60;;
12218;SDS011;6172;42.646;23.344;2024-02-04T08:23:03;1.43;;;0.40;;
12218;SDS011;6172;42.646;23.344;2024-02-04T08:25:34;1.57;;;0.83;;
12218;SDS011;6172;42.646;23.344;2024-02-04T08:28:02;1.03;;;0.70;;
12218;SDS011;6172;42.646;23.344;2024-02-04T08:30:31;2.47;;;0.50;;
12218;SDS011;6172;42.646;23.344;2024-02-04T08:32:59;0.90;;;0.40;;
12218;SDS011;6172;42.646;23.344;2024-02-04T08:35:35;0.80;;;0.50;;
12218;SDS011;6172;42.646;23.344;2024-02-04T08:38:03;0.50;;;0.50;;
12218;SDS011;6172;42.646;23.344;2024-02-04T08:40:35;0.67;;;0.50;;
12218;SDS011;6172;42.646;23.344;2024-02-04T08:43:02;0.50;;;0.47;;
12218;SDS011;6172;42.646;23.344;2024-02-04T08:45:30;1.53;;;0.80;;
12218;SDS011;6172;42.646;23.344;2024-02-04T08:48:02;2.23;;;0.50;;
12218;SDS011;6172;42.646;23.344;2024-02-04T08:50:30;0.97;;;0.50;;
12218;SDS011;6172;42.646;23.344;2024-02-04T08:53:03;0.80;;;0.63;;
12218;SDS011;6172;42.646;23.344;2024-02-04T08:55:30;1.73;;;0.40;;
12218;SDS011;6172;42.646;23.344;2024-02-04T08:57:58;0.27;;;0.27;;
12218;SDS011;6172;42.646;23.344;2024-02-04T09:00:26;0.30;;;0.27;;
12218;SDS011;6172;42.646;23.344;2024-02-04T09:02:53;0.93;;;0.30;;
12218;SDS011;6172;42.646;23.344;2024-02-04T09:05:21;0.90;;;0.53;;
12218;SDS011;6172;42.646;23.344;2024-02-04T09:07:49;4.37;;;0.50;;
12218;SDS011;6172;42.646;23.344;2024-02-04T09:10:18;2.03;;;0.37;;
12218;SDS011;6172;42.646;23.344;2024-02-04T09:12:45;3.73;;;0.40;;
12218;SDS011;6172;42.646;23.344;2024-02-04T09:15:13;2.07;;;0.50;;
12218;SDS011;6172;42.646;23.344;2024-02-04T09:17:44;3.70;;;0.57;;
12218;SDS011;6172;42.646;23.344;2024-02-04T09:20:11;1.70;;;0.43;;
12218;SDS011;6172;42.646;23.344;2024-02-04T09:22:43;1.80;;;0.27;;
12218;SDS011;6172;42.646;23.344;2024-02-04T09:25:14;1.60;;;0.57;;
12218;SDS011;6172;42.646;23.344;2024-02-04T09:27:46;1.90;;;0.50;;
12218;SDS011;6172;42.646;23.344;2024-02-04T09:30:14;1.50;;;0.67;;
12218;SDS011;6172;42.646;23.344;2024-02-04T09:32:42;1.43;;;0.40;;
12218;SDS011;6172;42.646;23.344;2024-02-04T09:35:09;0.93;;;0.70;;
12218;SDS011;6172;42.646;23.344;2024-02-04T09:37:37;1.10;;;0.83;;
12218;SDS011;6172;42.646;23.344;2024-02-04T09:40:05;2.13;;;0.70;;
12218;SDS011;6172;42.646;23.344;2024-02-04T09:42:33;0.90;;;0.70;;
12218;SDS011;6172;42.646;23.344;2024-02-04T09:48:24;2.60;;;0.50;;
12218;SDS011;6172;42.646;23.344;2024-02-04T09:50:59;0.67;;;0.50;;
12218;SDS011;6172;42.646;23.344;2024-02-04T09:53:29;0.97;;;0.60;;
12218;SDS011;6172;42.646;23.344;2024-02-04T09:56:01;1.87;;;0.60;;
12218;SDS011;6172;42.646;23.344;2024-02-04T09:58:31;1.93;;;0.70;;
12218;SDS011;6172;42.646;23.344;2024-02-04T10:00:59;3.53;;;0.90;;
12218;SDS011;6172;42.646;23.344;2024-02-04T10:03:28;1.23;;;0.90;;
12218;SDS011;6172;42.646;23.344;2024-02-04T10:05:55;2.87;;;0.80;;
12218;SDS011;6172;42.646;23.344;2024-02-04T10:08:22;2.80;;;0.87;;
12218;SDS011;6172;42.646;23.344;2024-02-04T10:10:50;2.73;;;0.67;;
12218;SDS011;6172;42.646;23.344;2024-02-04T10:13:17;1.00;;;0.70;;
12218;SDS011;6172;42.646;23.344;2024-02-04T10:15:44;2.23;;;1.13;;
12218;SDS011;6172;42.646;23.344;2024-02-04T10:18:11;3.33;;;0.80;;
12218;SDS011;6172;42.646;23.344;2024-02-04T10:20:39;2.30;;;0.70;;
12218;SDS011;6172;42.646;23.344;2024-02-04T10:23:06;1.93;;;0.50;;
12218;SDS011;6172;42.646;23.344;2024-02-04T10:25:33;0.60;;;0.50;;
12218;SDS011;6172;42.646;23.344;2024-02-04T10:28:01;3.57;;;0.50;;
12218;SDS011;6172;42.646;23.344;2024-02-04T10:30:28;5.50;;;1.00;;
12218;SDS011;6172;42.646;23.344;2024-02-04T10:32:55;2.00;;;0.60;;
12218;SDS011;6172;42.646;23.344;2024-02-04T10:35:22;1.13;;;0.63;;
12218;SDS011;6172;42.646;23.344;2024-02-04T10:37:51;3.03;;;0.50;;
12218;SDS011;6172;42.646;23.344;2024-02-04T10:40:20;2.93;;;0.63;;
12218;SDS011;6172;42.646;23.344;2024-02-04T10:42:47;3.40;;;0.50;;
12218;SDS011;6172;42.646;23.344;2024-02-04T10:45:17;0.70;;;0.63;;
12218;SDS011;6172;42.646;23.344;2024-02-04T10:47:46;2.40;;;0.67;;
12218;SDS011;6172;42.646;23.344;2024-02-04T10:50:21;2.80;;;0.80;;
12218;SDS011;6172;42.646;23.344;2024-02-04T10:52:52;2.37;;;0.53;;
12218;SDS011;6172;42.646;23.344;2024-02-04T10:55:23;0.50;;;0.50;;
12218;SDS011;6172;42.646;23.344;2024-02-04T10:58:02;2.33;;;0.70;;
12218;SDS011;6172;42.646;23.344;2024-02-04T11:00:30;3.43;;;0.57;;
12218;SDS011;6172;42.646;23.344;2024-02-04T11:02:58;2.43;;;0.70;;
12218;SDS011;6172;42.646;23.344;2024-02-04T11:05:30;3.43;;;0.60;;
12218;SDS011;6172;42.646;23.344;2024-02-04T11:08:03;4.20;;;0.57;;
12218;SDS011;6172;42.646;23.344;2024-02-04T11:10:31;1.80;;;0.53;;
12218;SDS011;6172;42.646;23.344;2024-02-04T11:13:00;0.73;;;0.50;;
12218;SDS011;6172;42.646;23.344;2024-02-04T11:15:32;2.30;;;0.50;;
12218;SDS011;6172;42.646;23.344;2024-02-04T11:21:16;2.57;;;0.60;;
12218;SDS011;6172;42.646;23.344;2024-02-04T11:23:58;2.63;;;0.60;;
12218;SDS011;6172;42.646;23.344;2024-02-04T11:26:36;0.97;;;0.63;;
12218;SDS011;6172;42.646;23.344;2024-02-04T11:29:06;1.17;;;0.53;;
12218;SDS011;6172;42.646;23.344;2024-02-04T11:31:33;1.80;;;0.43;;
12218;SDS011;6172;42.646;23.344;2024-02-04T11:34:00;0.40;;;0.40;;
12218;SDS011;6172;42.646;23.344;2024-02-04T11:36:27;1.13;;;0.40;;
12218;SDS011;6172;42.646;23.344;2024-02-04T11:38:55;0.60;;;0.40;;
12218;SDS011;6172;42.646;23.344;2024-02-04T11:41:24;1.13;;;0.50;;
12218;SDS011;6172;42.646;23.344;2024-02-04T11:43:53;0.87;;;0.40;;
12218;SDS011;6172;42.646;23.344;2024-02-04T11:46:27;4.23;;;0.90;;
12218;SDS011;6172;42.646;23.344;2024-02-04T11:48:54;4.17;;;1.00;;
12218;SDS011;6172;42.646;23.344;2024-02-04T11:51:23;2.10;;;1.17;;
12218;SDS011;6172;42.646;23.344;2024-02-04T11:53:50;2.00;;;1.03;;
12218;SDS011;6172;42.646;23.344;2024-02-04T11:56:18;1.17;;;0.53;;
12218;SDS011;6172;42.646;23.344;2024-02-04T11:58:48;2.63;;;0.60;;
12218;SDS011;6172;42.646;23.344;2024-02-04T12:01:15;1.40;;;0.57;;
12218;SDS011;6172;42.646;23.344;2024-02-04T12:03:42;1.07;;;0.50;;
12218;SDS011;6172;42.646;23.344;2024-02-04T12:06:10;1.37;;;0.60;;
12218;SDS011;6172;42.646;23.344;2024-02-04T12:08:40;0.57;;;0.50;;
12218;SDS011;6172;42.646;23.344;2024-02-04T12:11:09;2.27;;;0.83;;
12218;SDS011;6172;42.646;23.344;2024-02-04T12:13:36;1.17;;;0.30;;
12218;SDS011;6172;42.646;23.344;2024-02-04T12:16:06;2.97;;;0.40;;
12218;SDS011;6172;42.646;23.344;2024-02-04T12:18:34;1.03;;;0.40;;
12218;SDS011;6172;42.646;23.344;2024-02-04T12:21:01;3.60;;;0.60;;
12218;SDS011;6172;42.646;23.344;2024-02-04T12:23:29;2.83;;;0.57;;
12218;SDS011;6172;42.646;23.344;2024-02-04T12:25:56;1.47;;;0.70;;
12218;SDS011;6172;42.646;23.344;2024-02-04T12:28:23;1.10;;;0.60;;
12218;SDS011;6172;42.646;23.344;2024-02-04T12:30:53;0.77;;;0.40;;
12218;SDS011;6172;42.646;23.344;2024-02-04T12:33:22;1.20;;;0.60;;
12218;SDS011;6172;42.646;23.344;2024-02-04T12:35:50;3.13;;;0.50;;
12218;SDS011;6172;42.646;23.344;2024-02-04T12:38:17;1.17;;;0.40;;
12218;SDS011;6172;42.646;23.344;2024-02-04T12:40:46;1.03;;;0.70;;
12218;SDS011;6172;42.646;23.344;2024-02-04T12:43:13;0.70;;;0.63;;
12218;SDS011;6172;42.646;23.344;2024-02-04T12:45:40;1.63;;;0.50;;
12218;SDS011;6172;42.646;23.344;2024-02-04T12:48:08;0.87;;;0.40;;
12218;SDS011;6172;42.646;23.344;2024-02-04T12:50:38;2.37;;;0.50;;
12218;SDS011;6172;42.646;23.344;2024-02-04T12:53:05;3.17;;;0.57;;
12218;SDS011;6172;42.646;23.344;2024-02-04T12:55:36;0.40;;;0.40;;
12218;SDS011;6172;42.646;23.344;2024-02-04T12:58:04;1.40;;;0.60;;
12218;SDS011;6172;42.646;23.344;2024-02-04T13:00:35;0.57;;;0.40;;
12218;SDS011;6172;42.646;23.344;2024-02-04T13:03:03;1.43;;;0.90;;
12218;SDS011;6172;42.646;23.344;2024-02-04T13:05:33;0.90;;;0.80;;
12218;SDS011;6172;42.646;23.344;2024-02-04T13:08:08;1.63;;;0.60;;
12218;SDS011;6172;42.646;23.344;2024-02-04T13:10:36;2.53;;;0.60;;
12218;SDS011;6172;42.646;23.344;2024-02-04T13:13:04;0.63;;;0.30;;
12218;SDS011;6172;42.646;23.344;2024-02-04T13:15:35;1.67;;;0.80;;
12218;SDS011;6172;42.646;23.344;2024-02-04T13:18:03;3.70;;;0.77;;
12218;SDS011;6172;42.646;23.344;2024-02-04T13:20:31;1.33;;;0.60;;
12218;SDS011;6172;42.646;23.344;2024-02-04T13:22:58;1.90;;;0.50;;
12218;SDS011;6172;42.646;23.344;2024-02-04T13:25:30;0.50;;;0.50;;
12218;SDS011;6172;42.646;23.344;2024-02-04T13:27:58;0.87;;;0.70;;
12218;SDS011;6172;42.646;23.344;2024-02-04T13:30:25;1.53;;;0.60;;
12218;SDS011;6172;42.646;23.344;2024-02-04T13:32:53;0.50;;;0.50;;
12218;SDS011;6172;42.646;23.344;2024-02-04T13:35:22;0.80;;;0.50;;
12218;SDS011;6172;42.646;23.344;2024-02-04T13:37:52;2.87;;;0.60;;
12218;SDS011;6172;42.646;23.344;2024-02-04T13:40:39;0.60;;;0.60;;
12218;SDS011;6172;42.646;23.344;2024-02-04T13:43:12;1.60;;;0.50;;
12218;SDS011;6172;42.646;23.344;2024-02-04T13:45:41;0.97;;;0.40;;
12218;SDS011;6172;42.646;23.344;2024-02-04T13:48:20;1.53;;;0.60;;
12218;SDS011;6172;42.646;23.344;2024-02-04T13:50:50;2.20;;;0.60;;
12218;SDS011;6172;42.646;23.344;2024-02-04T13:53:18;1.40;;;0.60;;
12218;SDS011;6172;42.646;23.344;2024-02-04T13:55:53;0.50;;;0.50;;
12218;SDS011;6172;42.646;23.344;2024-02-04T13:58:21;1.53;;;0.60;;
12218;SDS011;6172;42.646;23.344;2024-02-04T14:00:49;1.23;;;0.47;;
12218;SDS011;6172;42.646;23.344;2024-02-04T14:03:17;1.37;;;0.60;;
12218;SDS011;6172;42.646;23.344;2024-02-04T14:05:46;1.33;;;0.63;;
12218;SDS011;6172;42.646;23.344;2024-02-04T14:08:13;2.97;;;0.70;;
12218;SDS011;6172;42.646;23.344;2024-02-04T14:10:40;0.73;;;0.70;;
12218;SDS011;6172;42.646;23.344;2024-02-04T14:13:22;2.80;;;0.90;;
12218;SDS011;6172;42.646;23.344;2024-02-04T14:15:49;2.30;;;0.83;;
12218;SDS011;6172;42.646;23.344;2024-02-04T14:18:19;2.67;;;0.60;;
12218;SDS011;6172;42.646;23.344;2024-02-04T14:20:46;4.67;;;0.50;;
12218;SDS011;6172;42.646;23.344;2024-02-04T14:23:15;1.33;;;0.60;;
12218;SDS011;6172;42.646;23.344;2024-02-04T14:25:44;2.83;;;0.50;;
12218;SDS011;6172;42.646;23.344;2024-02-04T14:28:15;1.33;;;0.90;;
12218;SDS011;6172;42.646;23.344;2024-02-04T14:30:48;1.80;;;0.60;;
12218;SDS011;6172;42.646;23.344;2024-02-04T14:33:16;1.60;;;0.50;;
12218;SDS011;6172;42.646;23.344;2024-02-04T14:35:57;0.90;;;0.50;;
12218;SDS011;6172;42.646;23.344;2024-02-04T14:38:30;4.23;;;0.60;;
12218;SDS011;6172;42.646;23.344;2024-02-04T14:40:58;1.63;;;0.60;;
12218;SDS011;6172;42.646;23.344;2024-02-04T14:43:31;2.00;;;0.73;;
12218;SDS011;6172;42.646;23.344;2024-02-04T14:46:06;1.57;;;0.80;;
12218;SDS011;6172;42.646;23.344;2024-02-04T14:48:35;1.90;;;0.70;;
12218;SDS011;6172;42.646;23.344;2024-02-04T14:51:08;1.37;;;0.50;;
12218;SDS011;6172;42.646;23.344;2024-02-04T14:54:05;1.37;;;0.80;;
12218;SDS011;6172;42.646;23.344;2024-02-04T14:56:46;0.63;;;0.60;;
12218;SDS011;6172;42.646;23.344;2024-02-04T14:59:14;1.27;;;0.63;;
12218;SDS011;6172;42.646;23.344;2024-02-04T15:01:47;1.47;;;0.73;;
12218;SDS011;6172;42.646;23.344;2024-02-04T15:04:15;1.53;;;0.70;;
12218;SDS011;6172;42.646;23.344;2024-02-04T15:06:43;0.50;;;0.50;;
12218;SDS011;6172;42.646;23.344;2024-02-04T15:09:11;1.00;;;0.70;;
12218;SDS011;6172;42.646;23.344;2024-02-04T15:11:40;1.20;;;0.60;;